Time;durP1;ratioP1;P1;durP2;ratioP2;P2;SDS_P1;SDS_P2;PMS_P1;PMS_P2;Temp;Humidity;BMP_temperature;BMP_pressure;BME280_temperature;BME280_humidity;BME280_pressure;Samples;Min_cycle;Max_cycle;Signal;HPM_P1;HPM_P2
2023/01/16 00:02:03;;;;;;;0.45;0.43;;;7.70;78.20;;;;;;5090099;28;20439;-61
2023/01/16 00:04:29;;;;;;;3.10;0.80;;;7.80;78.20;;;;;;5077902;28;20032;-61
2023/01/16 00:06:55;;;;;;;0.98;0.60;;;7.70;78.20;;;;;;5086559;28;20030;-67
2023/01/16 00:09:21;;;;;;;2.20;0.73;;;7.70;78.40;;;;;;5105684;28;20107;-67
2023/01/16 00:11:47;;;;;;;0.30;0.30;;;7.70;78.40;;;;;;5086025;28;20427;-67
2023/01/16 00:14:13;;;;;;;1.45;0.75;;;7.70;78.50;;;;;;5101863;28;21752;-66
2023/01/16 00:16:38;;;;;;;1.55;0.63;;;7.70;78.60;;;;;;5109777;28;20303;-67
2023/01/16 00:19:04;;;;;;;0.52;0.38;;;7.70;78.90;;;;;;5110602;28;20036;-67
2023/01/16 00:21:30;;;;;;;0.60;0.50;;;7.60;79.00;;;;;;5089691;28;20058;-67
2023/01/16 00:23:57;;;;;;;3.20;0.80;;;7.60;79.10;;;;;;5110848;28;20058;-60
2023/01/16 00:26:24;;;;;;;0.57;0.47;;;7.60;79.30;;;;;;5080008;28;20474;-61
2023/01/16 00:28:50;;;;;;;0.52;0.45;;;7.60;79.30;;;;;;5099633;28;20085;-60
2023/01/16 00:31:16;;;;;;;0.88;0.75;;;7.60;79.50;;;;;;5107310;28;20031;-67
2023/01/16 00:33:42;;;;;;;0.57;0.47;;;7.60;80.00;;;;;;5086964;28;20024;-68
2023/01/16 00:36:09;;;;;;;0.70;0.70;;;7.50;80.20;;;;;;5085476;28;20023;-62
2023/01/16 00:38:35;;;;;;;0.40;0.40;;;7.40;80.30;;;;;;5099568;28;20016;-60
2023/01/16 00:41:01;;;;;;;0.68;0.43;;;7.40;80.50;;;;;;5108278;28;20024;-60
2023/01/16 00:43:27;;;;;;;6.45;1.05;;;7.40;80.60;;;;;;5111860;28;20024;-60
2023/01/16 00:45:52;;;;;;;5.40;0.73;;;7.40;80.70;;;;;;5082744;28;20082;-60
2023/01/16 00:48:18;;;;;;;1.80;0.90;;;7.40;80.90;;;;;;5099175;28;20028;-61
2023/01/16 00:50:44;;;;;;;1.05;0.95;;;7.30;81.10;;;;;;5105813;28;20036;-61
2023/01/16 00:53:09;;;;;;;0.95;0.65;;;7.40;81.30;;;;;;5104455;28;20035;-61
2023/01/16 00:55:36;;;;;;;1.33;1.23;;;7.30;81.40;;;;;;5102598;28;20138;-60
2023/01/16 00:58:05;;;;;;;1.45;1.35;;;7.30;81.40;;;;;;5086522;28;20036;-60
2023/01/16 01:00:32;;;;;;;0.75;0.75;;;7.30;81.40;;;;;;5108122;28;20028;-67
2023/01/16 01:02:58;;;;;;;3.63;1.58;;;7.30;81.40;;;;;;5070579;28;20039;-67
2023/01/16 01:05:24;;;;;;;1.45;1.13;;;7.20;81.50;;;;;;5064113;28;20024;-60
2023/01/16 01:07:49;;;;;;;4.07;1.30;;;7.30;81.60;;;;;;5080187;28;20028;-67
2023/01/16 01:10:15;;;;;;;2.47;1.50;;;7.30;81.50;;;;;;5108352;28;20020;-67
2023/01/16 01:12:41;;;;;;;1.80;1.48;;;7.20;81.50;;;;;;5096295;28;20031;-67
2023/01/16 01:15:07;;;;;;;1.55;1.40;;;7.20;81.50;;;;;;5081125;28;20110;-67
2023/01/16 01:17:32;;;;;;;2.10;1.90;;;7.20;81.50;;;;;;5097530;28;20044;-60
2023/01/16 01:19:58;;;;;;;2.65;1.73;;;7.20;81.40;;;;;;5094097;28;20034;-60
2023/01/16 01:22:25;;;;;;;3.22;1.67;;;7.20;81.40;;;;;;5111628;28;20031;-61
2023/01/16 01:24:51;;;;;;;1.88;1.33;;;7.20;81.40;;;;;;5090876;28;20126;-61
2023/01/16 01:27:17;;;;;;;2.03;1.33;;;7.20;81.40;;;;;;5076945;28;20430;-61
2023/01/16 01:29:43;;;;;;;2.95;2.10;;;7.20;81.30;;;;;;5090907;28;20433;-61
2023/01/16 01:32:08;;;;;;;2.15;1.45;;;7.20;80.90;;;;;;5097137;28;20079;-61
2023/01/16 01:34:35;;;;;;;1.75;1.38;;;7.20;80.90;;;;;;5098477;28;20501;-67
2023/01/16 01:37:05;;;;;;;1.02;0.93;;;7.20;81.00;;;;;;5095026;28;20360;-67
2023/01/16 01:39:31;;;;;;;1.67;1.42;;;7.20;80.90;;;;;;5094680;28;20032;-67
2023/01/16 01:44:45;;;;;;;1.77;1.38;;;7.10;81.00;;;;;;5097646;28;20512;-60
2023/01/16 01:47:12;;;;;;;1.20;1.10;;;7.10;81.00;;;;;;5089037;28;20039;-60
2023/01/16 01:49:38;;;;;;;1.17;0.98;;;7.10;81.10;;;;;;5090737;28;20391;-68
2023/01/16 01:52:05;;;;;;;1.60;1.05;;;7.10;81.10;;;;;;5106323;28;20040;-68
2023/01/16 01:54:48;;;;;;;1.23;1.13;;;7.20;80.90;;;;;;5103194;28;20051;-68
2023/01/16 01:57:22;;;;;;;2.10;1.50;;;7.20;80.80;;;;;;5105186;28;20123;-68
2023/01/16 01:59:58;;;;;;;4.00;1.58;;;7.20;80.90;;;;;;5110548;28;20160;-68
2023/01/16 02:02:28;;;;;;;0.85;0.85;;;7.20;81.10;;;;;;5097018;28;20028;-68
2023/01/16 02:04:57;;;;;;;1.55;1.27;;;7.10;81.10;;;;;;5100132;27;20139;-68
2023/01/16 02:07:26;;;;;;;2.50;1.20;;;7.10;81.30;;;;;;5101269;28;20039;-68
2023/01/16 02:09:56;;;;;;;1.90;1.08;;;7.10;81.50;;;;;;5092300;28;20024;-66
2023/01/16 02:12:22;;;;;;;0.73;0.73;;;7.00;81.50;;;;;;5081044;28;20070;-67
2023/01/16 02:14:49;;;;;;;1.58;1.05;;;7.00;81.60;;;;;;5072006;28;20056;-67
2023/01/16 02:20:24;;;;;;;3.10;1.70;;;7.00;81.60;;;;;;5090210;28;20115;-68
2023/01/16 02:23:02;;;;;;;1.88;1.05;;;7.00;81.50;;;;;;5095788;28;20016;-68
2023/01/16 02:26:00;;;;;;;2.30;1.17;;;7.00;81.60;;;;;;5092543;28;20032;-61
2023/01/16 02:28:26;;;;;;;5.82;1.10;;;7.00;81.30;;;;;;5083853;28;20388;-61
2023/01/16 02:31:06;;;;;;;1.42;0.82;;;7.00;81.20;;;;;;5097875;28;20036;-63
2023/01/16 02:33:51;;;;;;;5.68;1.63;;;7.10;81.20;;;;;;5092742;28;20028;-60
2023/01/16 02:36:40;;;;;;;1.13;0.88;;;7.00;81.10;;;;;;5086332;28;20371;-60
2023/01/16 02:39:39;;;;;;;1.10;0.77;;;7.00;81.10;;;;;;5099276;28;20576;-59
2023/01/16 02:42:28;;;;;;;0.60;0.43;;;7.00;81.00;;;;;;5074864;28;20118;-61
2023/01/16 02:45:18;;;;;;;2.20;0.80;;;6.90;81.10;;;;;;5079531;28;20028;-60
2023/01/16 02:48:02;;;;;;;1.73;1.05;;;7.00;81.00;;;;;;5086135;28;20056;-61
2023/01/16 02:50:36;;;;;;;0.90;0.50;;;7.00;81.00;;;;;;5089818;28;20059;-60
2023/01/16 02:53:22;;;;;;;2.90;0.70;;;7.00;81.00;;;;;;5078565;28;20020;-61
2023/01/16 02:55:53;;;;;;;0.52;0.52;;;7.00;81.00;;;;;;5086086;28;20027;-61
2023/01/16 02:58:21;;;;;;;1.83;0.43;;;7.00;81.00;;;;;;5095492;28;20062;-61
2023/01/16 03:00:58;;;;;;;0.52;0.40;;;7.00;80.80;;;;;;5078182;28;20474;-61
2023/01/16 03:03:44;;;;;;;1.77;0.88;;;7.00;80.70;;;;;;5099593;28;20490;-68
2023/01/16 03:06:27;;;;;;;0.95;0.60;;;7.00;80.70;;;;;;5107844;28;20024;-68
2023/01/16 03:08:58;;;;;;;;;;;7.00;80.90;;;;;;5087687;28;20115;-68
2023/01/16 03:11:26;;;;;;;4.55;0.90;;;7.00;81.00;;;;;;5070575;28;20027;-67
2023/01/16 03:13:51;;;;;;;2.92;1.20;;;6.90;80.90;;;;;;5082048;28;20032;-68
2023/01/16 03:16:39;;;;;;;1.00;0.60;;;7.00;80.90;;;;;;5105806;28;20031;-68
2023/01/16 03:19:20;;;;;;;0.57;0.35;;;7.00;80.80;;;;;;5095221;28;20080;-68
2023/01/16 03:22:09;;;;;;;0.98;0.63;;;7.00;80.70;;;;;;5085679;28;20478;-68
2023/01/16 03:25:20;;;;;;;0.57;0.50;;;7.00;81.20;;;;;;5099299;28;20080;-68
2023/01/16 03:27:55;;;;;;;9.00;1.40;;;7.00;80.50;;;;;;5085273;28;20036;-68
2023/01/16 03:30:38;;;;;;;1.27;0.88;;;6.90;80.60;;;;;;5102973;28;20483;-67
2023/01/16 03:33:07;;;;;;;1.95;0.85;;;6.90;80.50;;;;;;5082737;28;20040;-60
2023/01/16 03:35:42;;;;;;;1.23;0.77;;;6.90;80.60;;;;;;5107788;28;20038;-67
2023/01/16 03:38:11;;;;;;;1.50;0.60;;;6.80;80.40;;;;;;5084610;28;20057;-67
2023/01/16 03:40:41;;;;;;;1.38;0.93;;;6.80;80.40;;;;;;5090043;28;20065;-60
2023/01/16 03:43:13;;;;;;;4.43;0.88;;;6.80;80.40;;;;;;5092092;28;20390;-60
2023/01/16 03:45:44;;;;;;;2.55;0.95;;;6.70;80.20;;;;;;5078594;28;20347;-61
2023/01/16 03:48:31;;;;;;;1.23;0.60;;;6.70;80.20;;;;;;5109871;28;20028;-60
2023/01/16 03:51:02;;;;;;;0.70;0.60;;;6.70;80.20;;;;;;5090462;28;20027;-60
2023/01/16 03:53:32;;;;;;;1.33;0.85;;;6.60;80.40;;;;;;5092292;28;20149;-61
2023/01/16 03:56:15;;;;;;;1.30;0.20;;;6.60;80.30;;;;;;5103055;28;20028;-59
2023/01/16 03:58:45;;;;;;;1.30;0.60;;;6.60;80.20;;;;;;5084261;28;20047;-60
2023/01/16 04:01:19;;;;;;;0.77;0.47;;;6.50;80.30;;;;;;5111775;28;20031;-61
2023/01/16 04:03:58;;;;;;;1.10;0.73;;;6.50;80.30;;;;;;5068185;28;20024;-61
2023/01/16 04:06:32;;;;;;;0.50;0.50;;;6.60;80.40;;;;;;5093033;28;20090;-68
2023/01/16 04:09:01;;;;;;;2.25;0.77;;;6.50;80.30;;;;;;5106668;28;20390;-67
2023/01/16 04:11:27;;;;;;;0.75;0.30;;;6.50;80.40;;;;;;5111941;28;20023;-61
2023/01/16 04:13:56;;;;;;;1.30;0.65;;;6.50;80.30;;;;;;5112046;28;20034;-61
2023/01/16 04:16:22;;;;;;;1.45;0.85;;;6.60;80.40;;;;;;5092607;28;20047;-61
2023/01/16 04:18:52;;;;;;;2.42;1.23;;;6.60;80.40;;;;;;5104314;28;20028;-61
2023/01/16 04:21:18;;;;;;;5.90;0.82;;;6.60;80.40;;;;;;5092387;28;20533;-61
2023/01/16 04:23:44;;;;;;;1.75;0.90;;;6.60;80.50;;;;;;5110691;28;20114;-61
2023/01/16 04:26:10;;;;;;;0.75;0.55;;;6.60;80.50;;;;;;5110496;28;20532;-61
2023/01/16 04:28:35;;;;;;;0.73;0.60;;;6.60;80.40;;;;;;5092394;28;20093;-61
2023/01/16 04:31:01;;;;;;;1.90;0.80;;;6.60;80.40;;;;;;5111559;28;20074;-62
2023/01/16 04:33:27;;;;;;;0.73;0.50;;;6.60;80.40;;;;;;5110987;28;20386;-61
2023/01/16 04:35:52;;;;;;;1.25;0.45;;;6.60;80.40;;;;;;5108750;28;20131;-62
2023/01/16 04:38:18;;;;;;;1.95;0.70;;;6.70;80.40;;;;;;5110673;28;20032;-61
2023/01/16 04:40:44;;;;;;;2.92;0.90;;;6.60;80.30;;;;;;5108276;28;20035;-67
2023/01/16 04:43:09;;;;;;;7.90;1.08;;;6.60;80.30;;;;;;5090218;28;20398;-67
2023/01/16 04:45:35;;;;;;;3.97;0.77;;;6.70;80.40;;;;;;5099965;28;20495;-66
2023/01/16 04:48:01;;;;;;;1.33;0.68;;;6.60;80.40;;;;;;5095425;28;20024;-67
2023/01/16 04:50:26;;;;;;;1.10;0.70;;;6.60;80.40;;;;;;5082461;28;20024;-66
2023/01/16 04:52:52;;;;;;;2.45;0.95;;;6.60;80.40;;;;;;5100217;28;20156;-67
2023/01/16 04:55:18;;;;;;;0.60;0.60;;;6.60;80.40;;;;;;5094772;28;20110;-69
2023/01/16 04:57:44;;;;;;;2.80;1.10;;;6.60;80.40;;;;;;5072426;28;20053;-66
2023/01/16 05:00:11;;;;;;;3.92;1.38;;;6.60;80.60;;;;;;5065937;28;20146;-66
2023/01/16 05:02:36;;;;;;;1.20;0.90;;;6.50;80.60;;;;;;5091598;28;20496;-66
2023/01/16 05:05:02;;;;;;;2.08;1.25;;;6.50;80.60;;;;;;5105791;28;20027;-67
2023/01/16 05:07:28;;;;;;;1.65;0.70;;;6.50;80.70;;;;;;5106295;28;20046;-67
2023/01/16 05:09:54;;;;;;;1.33;0.90;;;6.50;80.70;;;;;;5105562;28;20035;-67
2023/01/16 05:12:20;;;;;;;3.20;0.88;;;6.50;80.70;;;;;;5107340;28;20450;-67
2023/01/16 05:14:47;;;;;;;2.15;0.82;;;6.50;80.70;;;;;;5100009;28;20081;-67
2023/01/16 05:17:12;;;;;;;0.93;0.82;;;6.50;80.70;;;;;;5079729;28;20460;-67
2023/01/16 05:19:38;;;;;;;1.42;0.40;;;6.50;80.70;;;;;;5092798;28;20382;-67
2023/01/16 05:22:04;;;;;;;1.92;0.77;;;6.50;80.80;;;;;;5099611;28;20028;-61
2023/01/16 05:24:29;;;;;;;1.00;0.60;;;6.50;80.80;;;;;;5095941;28;20431;-60
2023/01/16 05:26:55;;;;;;;0.93;0.47;;;6.50;80.80;;;;;;5090922;28;20052;-61
2023/01/16 05:29:21;;;;;;;0.98;0.52;;;6.50;80.90;;;;;;5091804;28;20081;-59
2023/01/16 05:31:46;;;;;;;0.88;0.80;;;6.50;80.90;;;;;;5089363;28;20396;-66
2023/01/16 05:34:12;;;;;;;2.28;0.55;;;6.50;81.00;;;;;;5095257;28;20331;-60
2023/01/16 05:36:38;;;;;;;1.45;1.00;;;6.50;81.10;;;;;;5100777;28;20054;-60
2023/01/16 05:39:03;;;;;;;4.65;1.23;;;6.50;81.10;;;;;;5104389;28;20020;-67
2023/01/16 05:41:29;;;;;;;1.10;0.60;;;6.50;81.10;;;;;;5100799;28;20024;-67
2023/01/16 05:43:55;;;;;;;2.65;0.77;;;6.50;81.20;;;;;;5074860;28;21464;-61
2023/01/16 05:46:20;;;;;;;1.08;0.65;;;6.50;81.20;;;;;;5054846;28;20480;-62
2023/01/16 05:48:46;;;;;;;1.42;0.73;;;6.50;81.10;;;;;;5090937;28;20032;-61
2023/01/16 05:51:12;;;;;;;1.48;0.75;;;6.50;81.10;;;;;;5090763;28;20081;-60
2023/01/16 05:53:38;;;;;;;1.70;0.35;;;6.50;81.20;;;;;;5092982;28;20031;-66
2023/01/16 05:56:09;;;;;;;1.15;0.60;;;6.60;81.20;;;;;;5071293;28;20023;-66
2023/01/16 05:58:34;;;;;;;1.52;0.50;;;6.60;81.10;;;;;;5073391;28;20039;-67
2023/01/16 06:01:00;;;;;;;1.65;0.82;;;6.60;81.20;;;;;;5093664;28;20024;-61
2023/01/16 06:03:26;;;;;;;0.80;0.47;;;6.70;81.20;;;;;;5091498;28;20027;-61
2023/01/16 06:05:51;;;;;;;1.75;0.63;;;6.70;81.20;;;;;;5089771;28;20102;-61
2023/01/16 06:08:17;;;;;;;1.17;0.63;;;6.70;81.20;;;;;;5075672;28;20109;-60
2023/01/16 06:10:44;;;;;;;2.85;0.98;;;6.70;81.20;;;;;;5107894;28;20119;-67
2023/01/16 06:13:11;;;;;;;1.38;0.82;;;6.70;81.20;;;;;;5101437;28;20024;-61
2023/01/16 06:15:36;;;;;;;3.53;0.60;;;6.70;81.10;;;;;;5097267;28;20554;-60
2023/01/16 06:18:02;;;;;;;0.98;0.80;;;6.70;81.10;;;;;;5095258;28;20063;-61
2023/01/16 06:20:28;;;;;;;3.63;0.55;;;6.70;81.10;;;;;;5085682;28;20023;-61
2023/01/16 06:22:53;;;;;;;1.15;0.50;;;6.70;81.20;;;;;;5098106;28;20393;-61
2023/01/16 06:25:19;;;;;;;2.28;0.80;;;6.70;81.20;;;;;;5100720;28;20039;-62
2023/01/16 06:27:50;;;;;;;1.50;0.80;;;6.80;81.10;;;;;;5074882;28;20493;-67
2023/01/16 06:30:16;;;;;;;1.00;0.60;;;6.80;81.20;;;;;;5106471;28;20356;-66
2023/01/16 06:32:42;;;;;;;0.55;0.40;;;6.80;81.20;;;;;;5107865;28;20410;-66
2023/01/16 06:35:08;;;;;;;1.50;0.60;;;6.80;81.20;;;;;;5065139;28;20025;-68
2023/01/16 06:37:33;;;;;;;0.75;0.60;;;6.80;81.30;;;;;;5099538;28;20028;-68
2023/01/16 06:40:00;;;;;;;0.63;0.63;;;6.80;81.20;;;;;;5088775;28;20020;-68
2023/01/16 06:42:25;;;;;;;0.50;0.47;;;6.80;81.10;;;;;;5091015;28;20035;-68
2023/01/16 06:44:51;;;;;;;1.67;0.77;;;6.80;81.20;;;;;;5074422;28;20036;-67
2023/01/16 06:47:17;;;;;;;0.52;0.40;;;6.80;81.20;;;;;;5105030;28;20452;-69
2023/01/16 06:49:42;;;;;;;1.10;0.40;;;6.80;81.20;;;;;;5095548;28;20459;-72
2023/01/16 06:52:08;;;;;;;0.80;0.40;;;6.80;81.10;;;;;;5066334;28;20027;-69
2023/01/16 06:54:34;;;;;;;2.10;0.70;;;6.80;81.00;;;;;;5108110;28;20028;-72
2023/01/16 06:56:59;;;;;;;0.52;0.38;;;6.80;81.00;;;;;;5089714;28;20035;-70
2023/01/16 06:59:25;;;;;;;1.23;0.77;;;6.80;81.10;;;;;;5079963;28;20039;-75
2023/01/16 07:01:51;;;;;;;1.27;1.17;;;6.90;81.20;;;;;;5100912;28;20514;-73
2023/01/16 07:04:17;;;;;;;0.85;0.52;;;6.80;81.10;;;;;;5096405;28;20050;-73
2023/01/16 07:06:43;;;;;;;0.38;0.38;;;6.80;81.10;;;;;;5090073;28;20036;-63
2023/01/16 07:09:10;;;;;;;1.55;0.73;;;6.80;81.20;;;;;;5084080;28;20360;-62
2023/01/16 07:11:35;;;;;;;1.65;0.75;;;6.80;81.30;;;;;;5089991;28;20392;-71
2023/01/16 07:25:01;;;;;;;1.60;0.88;;;6.90;81.90;;;;;;5078582;28;20055;-70
2023/01/16 07:27:26;;;;;;;1.40;0.98;;;6.90;82.10;;;;;;5081483;28;20085;-72
2023/01/16 07:29:52;;;;;;;0.70;0.70;;;6.90;82.20;;;;;;5089124;28;20520;-72
2023/01/16 07:32:19;;;;;;;4.65;0.70;;;6.90;82.20;;;;;;5045630;28;20028;-72
2023/01/16 07:34:44;;;;;;;1.25;0.85;;;6.90;82.40;;;;;;5096399;28;20111;-62
2023/01/16 07:37:10;;;;;;;1.70;0.75;;;6.90;82.60;;;;;;5096973;28;20115;-62
2023/01/16 07:39:39;;;;;;;2.08;1.00;;;6.90;82.80;;;;;;5084825;28;20032;-62
2023/01/16 07:42:06;;;;;;;1.58;1.13;;;6.80;82.80;;;;;;5076984;28;20482;-63
2023/01/16 07:44:32;;;;;;;2.50;1.15;;;6.80;83.00;;;;;;5098453;28;20394;-60
2023/01/16 07:46:58;;;;;;;1.05;0.80;;;6.80;83.10;;;;;;5097961;28;20428;-71
2023/01/16 07:49:23;;;;;;;0.60;0.47;;;6.90;83.20;;;;;;5099950;28;20081;-61
2023/01/16 07:51:49;;;;;;;2.20;0.80;;;6.90;83.20;;;;;;5078268;28;20189;-60
2023/01/16 07:54:15;;;;;;;5.88;0.60;;;6.90;83.20;;;;;;5080066;28;20024;-60
2023/01/16 07:56:40;;;;;;;1.92;0.85;;;6.90;83.30;;;;;;5097742;28;20415;-61
2023/01/16 07:59:06;;;;;;;0.50;0.50;;;6.90;83.30;;;;;;5097482;28;20032;-60
2023/01/16 08:01:33;;;;;;;2.90;1.15;;;6.90;83.30;;;;;;5076320;28;20054;-61
2023/01/16 08:03:58;;;;;;;2.00;0.40;;;6.90;83.40;;;;;;5096924;28;20039;-60
2023/01/16 08:06:24;;;;;;;1.50;0.52;;;6.90;83.40;;;;;;5072239;28;20028;-60
2023/01/16 08:08:50;;;;;;;0.88;0.68;;;6.90;83.50;;;;;;5078017;28;20036;-61
2023/01/16 08:14:00;;;;;;;0.40;0.40;;;6.80;83.60;;;;;;5087550;28;20074;-59
2023/01/16 08:16:26;;;;;;;2.20;0.90;;;6.80;83.70;;;;;;5066235;28;20499;-59
2023/01/16 08:18:52;;;;;;;1.58;0.70;;;6.80;83.80;;;;;;5084174;28;20438;-60
2023/01/16 08:21:17;;;;;;;0.75;0.47;;;6.80;83.80;;;;;;5086694;28;20062;-61
2023/01/16 08:23:43;;;;;;;0.95;0.55;;;6.80;83.90;;;;;;5081898;28;20034;-61
2023/01/16 08:26:10;;;;;;;1.52;0.80;;;6.80;83.90;;;;;;5103677;28;20028;-61
2023/01/16 08:28:36;;;;;;;1.85;0.50;;;6.80;83.90;;;;;;5089825;28;20538;-61
2023/01/16 08:31:12;;;;;;;0.50;0.40;;;6.80;83.90;;;;;;5096333;28;20035;-61
2023/01/16 08:33:40;;;;;;;0.90;0.60;;;6.90;84.00;;;;;;5083834;28;20435;-61
2023/01/16 08:36:08;;;;;;;1.00;0.65;;;6.90;84.10;;;;;;5101205;28;20016;-61
2023/01/16 08:38:34;;;;;;;0.65;0.57;;;6.80;84.10;;;;;;5106900;28;20031;-67
2023/01/16 08:41:00;;;;;;;0.57;0.47;;;6.80;84.20;;;;;;5108169;28;20110;-72
2023/01/16 08:51:51;;;;;;;0.65;0.50;;;6.90;84.40;;;;;;5093440;28;20154;-67
2023/01/16 08:54:17;;;;;;;1.08;0.40;;;6.80;84.30;;;;;;5101056;28;20107;-66
2023/01/16 08:56:43;;;;;;;0.75;0.30;;;6.80;84.40;;;;;;5093974;28;20036;-67
2023/01/16 08:59:10;;;;;;;1.77;0.65;;;6.80;84.40;;;;;;5068978;28;20024;-61
2023/01/16 09:01:41;;;;;;;1.23;0.55;;;6.80;84.70;;;;;;5094749;28;20042;-60
2023/01/16 09:04:07;;;;;;;0.60;0.50;;;6.90;85.00;;;;;;5088918;28;20034;-61
2023/01/16 09:06:35;;;;;;;1.17;0.98;;;6.90;84.80;;;;;;5095507;28;20032;-60
2023/01/16 09:09:03;;;;;;;0.73;0.60;;;6.90;84.80;;;;;;5102742;28;20021;-60
2023/01/16 09:14:12;;;;;;;1.08;0.50;;;6.90;84.60;;;;;;5091849;28;20043;-59
2023/01/16 09:16:38;;;;;;;0.60;0.50;;;6.90;84.60;;;;;;5095373;28;20491;-59
2023/01/16 09:19:04;;;;;;;0.90;0.55;;;7.00;84.70;;;;;;5092005;28;20032;-60
2023/01/16 09:21:29;;;;;;;2.92;0.80;;;7.00;84.80;;;;;;5107110;28;20028;-60
2023/01/16 09:23:55;;;;;;;1.02;0.70;;;7.00;84.70;;;;;;5101381;28;20028;-62
2023/01/16 09:26:21;;;;;;;2.88;0.60;;;7.00;84.90;;;;;;5078953;28;20106;-66
2023/01/16 09:28:46;;;;;;;4.47;0.65;;;7.00;84.90;;;;;;5097691;28;20127;-66
2023/01/16 09:31:12;;;;;;;4.13;1.25;;;7.00;84.90;;;;;;5074271;28;20113;-61
2023/01/16 09:33:38;;;;;;;1.13;0.80;;;7.00;84.90;;;;;;5089458;27;20033;-60
2023/01/16 09:36:04;;;;;;;1.98;0.77;;;7.00;84.70;;;;;;5088194;28;20501;-65
2023/01/16 09:38:30;;;;;;;0.75;0.70;;;7.00;84.70;;;;;;5090700;28;20032;-66
2023/01/16 09:40:58;;;;;;;1.42;0.40;;;7.10;84.80;;;;;;5092613;28;20023;-65
2023/01/16 09:43:36;;;;;;;2.10;1.10;;;7.10;84.80;;;;;;5093822;28;20036;-60
2023/01/16 09:46:22;;;;;;;1.63;0.80;;;7.10;84.80;;;;;;5097897;28;20081;-61
2023/01/16 09:49:03;;;;;;;1.85;0.75;;;7.10;84.80;;;;;;5092283;28;20040;-60
2023/01/16 09:51:34;;;;;;;2.03;0.88;;;7.10;84.90;;;;;;5083281;28;20140;-60
2023/01/16 09:59:51;;;;;;;1.15;0.85;;;7.00;85.20;;;;;;5090786;28;20387;-60
2023/01/16 10:02:25;;;;;;;1.23;0.82;;;7.00;85.30;;;;;;5090870;28;20425;-60
2023/01/16 10:04:52;;;;;;;1.42;0.82;;;7.00;85.40;;;;;;5089929;28;20474;-61
2023/01/16 10:07:26;;;;;;;0.57;0.57;;;7.00;85.50;;;;;;5090761;28;20633;-65
2023/01/16 10:10:06;;;;;;;0.88;0.68;;;7.10;85.40;;;;;;5089631;28;20027;-67
2023/01/16 10:12:37;;;;;;;0.55;0.50;;;7.20;85.30;;;;;;5090220;28;20089;-66
2023/01/16 10:15:02;;;;;;;0.40;0.40;;;7.10;85.20;;;;;;5090341;28;20020;-69
2023/01/16 10:18:07;;;;;;;2.08;0.95;;;7.10;85.20;;;;;;5072134;28;20052;-66
2023/01/16 10:21:17;;;;;;;0.50;0.50;;;7.10;85.30;;;;;;5085467;28;20073;-66
2023/01/16 10:23:54;;;;;;;0.38;0.38;;;7.00;85.30;;;;;;5085048;28;20520;-67
2023/01/16 10:26:37;;;;;;;0.63;0.63;;;7.00;85.60;;;;;;5089512;28;20031;-66
2023/01/16 10:29:23;;;;;;;2.25;1.00;;;7.00;85.60;;;;;;5086261;28;20020;-66
2023/01/16 10:32:00;;;;;;;1.50;0.60;;;7.00;85.60;;;;;;5089724;28;20037;-65
2023/01/16 10:34:40;;;;;;;0.40;0.40;;;7.00;85.70;;;;;;5081546;28;20111;-66
2023/01/16 10:37:07;;;;;;;0.47;0.47;;;6.90;85.60;;;;;;5086048;28;20042;-66
2023/01/16 10:39:36;;;;;;;1.30;0.60;;;6.90;85.60;;;;;;5090068;28;20028;-66
2023/01/16 10:50:36;;;;;;;1.65;0.57;;;7.00;85.50;;;;;;5083561;28;20063;-63
2023/01/16 10:53:03;;;;;;;0.50;0.50;;;7.00;85.40;;;;;;5070659;28;20020;-63
2023/01/16 10:55:30;;;;;;;0.20;0.20;;;7.10;85.30;;;;;;5070419;28;20089;-62
2023/01/16 10:58:01;;;;;;;0.80;0.43;;;7.10;85.10;;;;;;5088790;28;20047;-63
2023/01/16 11:00:34;;;;;;;1.23;0.60;;;7.10;85.10;;;;;;5089190;28;20023;-63
2023/01/16 11:03:23;;;;;;;0.30;0.30;;;7.10;85.10;;;;;;5086728;28;20102;-66
2023/01/16 11:05:49;;;;;;;0.40;0.40;;;7.20;85.00;;;;;;5092313;28;20032;-66
2023/01/16 11:08:18;;;;;;;1.17;0.65;;;7.10;84.90;;;;;;5088582;28;20447;-63
2023/01/16 11:10:49;;;;;;;0.40;0.40;;;7.10;85.00;;;;;;5093940;28;20040;-63
2023/01/16 11:19:27;;;;;;;1.58;0.93;;;7.10;85.10;;;;;;5086337;28;20031;-65
2023/01/16 11:21:59;;;;;;;0.57;0.55;;;7.10;85.20;;;;;;5087117;28;20027;-66
2023/01/16 11:24:38;;;;;;;0.47;0.47;;;7.10;85.30;;;;;;5093875;28;20119;-65
2023/01/16 11:27:21;;;;;;;0.60;0.52;;;7.20;85.30;;;;;;5088931;28;20145;-63
2023/01/16 11:29:53;;;;;;;0.38;0.38;;;7.20;85.20;;;;;;5075709;28;20106;-62
2023/01/16 11:32:24;;;;;;;0.80;0.40;;;7.20;85.10;;;;;;5089877;28;20387;-62
2023/01/16 11:34:54;;;;;;;0.68;0.60;;;7.20;85.10;;;;;;5090785;28;20483;-62
2023/01/16 11:37:21;;;;;;;1.23;0.70;;;7.30;85.10;;;;;;5096393;28;20026;-62
2023/01/16 11:39:50;;;;;;;0.65;0.40;;;7.40;85.00;;;;;;5087283;28;20043;-62
2023/01/16 11:48:22;;;;;;;0.30;0.28;;;7.70;84.40;;;;;;5093948;28;20085;-62
2023/01/16 11:50:58;;;;;;;2.30;0.55;;;7.80;84.20;;;;;;5076095;28;20113;-63
2023/01/16 11:53:31;;;;;;;2.42;0.60;;;7.90;84.10;;;;;;5088460;28;20364;-62
2023/01/16 11:56:03;;;;;;;0.63;0.40;;;7.90;84.00;;;;;;5088711;28;20019;-63
2023/01/16 11:59:06;;;;;;;0.57;0.30;;;7.80;83.80;;;;;;5071736;28;20537;-65
2023/01/16 12:08:01;;;;;;;1.02;0.60;;;7.70;84.00;;;;;;5076815;28;20115;-64
2023/01/16 12:11:04;;;;;;;0.80;0.43;;;7.60;84.00;;;;;;5095680;28;20109;-64
2023/01/16 12:16:40;;;;;;;0.57;0.57;;;7.70;83.70;;;;;;5094794;28;20036;-64
2023/01/16 12:19:39;;;;;;;0.33;0.33;;;7.70;83.80;;;;;;5092799;28;20028;-64
2023/01/16 12:22:14;;;;;;;0.60;0.40;;;7.80;83.80;;;;;;5097724;27;20752;-63
2023/01/16 12:25:07;;;;;;;0.30;0.30;;;7.80;84.30;;;;;;5080168;28;20024;-62
2023/01/16 12:27:39;;;;;;;0.95;0.47;;;7.90;83.40;;;;;;5092478;28;20024;-62
2023/01/16 12:30:23;;;;;;;0.68;0.40;;;7.90;83.40;;;;;;5089757;28;20028;-62
2023/01/16 12:33:38;;;;;;;0.47;0.30;;;8.00;83.30;;;;;;5101559;28;20024;-62
2023/01/16 12:36:31;;;;;;;0.22;0.22;;;8.00;83.30;;;;;;5097266;28;20020;-63
2023/01/16 12:39:14;;;;;;;0.55;0.55;;;8.00;83.40;;;;;;5092991;28;20020;-65
2023/01/16 12:44:44;;;;;;;0.23;0.23;;;8.00;83.50;;;;;;5080559;28;20112;-63
2023/01/16 12:47:27;;;;;;;0.52;0.40;;;8.00;83.50;;;;;;5093712;28;20677;-62
2023/01/16 12:50:17;;;;;;;0.90;0.30;;;8.00;83.60;;;;;;5089148;28;20032;-62
2023/01/16 12:52:57;;;;;;;0.88;0.40;;;8.00;83.50;;;;;;5087516;28;20517;-62
2023/01/16 12:56:05;;;;;;;1.75;0.40;;;8.00;83.40;;;;;;5089797;28;20028;-62
2023/01/16 12:58:38;;;;;;;1.83;0.30;;;7.90;83.40;;;;;;5093098;28;20024;-62
2023/01/16 13:01:12;;;;;;;0.28;0.22;;;8.00;83.60;;;;;;5094594;28;20099;-63
2023/01/16 13:04:01;;;;;;;0.52;0.40;;;8.00;83.40;;;;;;5088883;28;20638;-61
2023/01/16 13:06:33;;;;;;;0.20;0.20;;;8.00;83.30;;;;;;5082500;28;20060;-64
2023/01/16 13:09:05;;;;;;;0.22;0.20;;;8.00;83.30;;;;;;5087344;28;20024;-64
2023/01/16 13:14:24;;;;;;;0.35;0.35;;;8.10;83.20;;;;;;5093649;28;19964;-63
2023/01/16 13:17:07;;;;;;;0.43;0.35;;;8.00;83.20;;;;;;5090803;28;20043;-62
2023/01/16 13:19:38;;;;;;;1.95;0.40;;;8.10;83.20;;;;;;5093763;28;20433;-62
2023/01/16 13:22:28;;;;;;;0.40;0.30;;;8.00;83.10;;;;;;5100256;28;20093;-63
2023/01/16 13:25:13;;;;;;;0.30;0.30;;;8.10;83.20;;;;;;5088931;28;20016;-63
2023/01/16 13:27:47;;;;;;;0.55;0.50;;;8.00;83.00;;;;;;5076812;28;20531;-62
2023/01/16 13:30:18;;;;;;;2.38;0.45;;;8.00;83.10;;;;;;5082527;28;20478;-63
2023/01/16 13:33:09;;;;;;;0.30;0.30;;;7.90;83.00;;;;;;5102983;28;20085;-62
2023/01/16 13:36:02;;;;;;;0.47;0.47;;;8.00;82.90;;;;;;5092772;28;20036;-62
2023/01/16 13:38:43;;;;;;;0.20;0.20;;;7.90;82.80;;;;;;5080304;28;20054;-62
2023/01/16 13:41:38;;;;;;;0.65;0.50;;;7.90;82.90;;;;;;5093878;28;20047;-62
2023/01/16 13:47:13;;;;;;;0.20;0.20;;;7.90;83.40;;;;;;5085567;28;20047;-62
2023/01/16 13:49:39;;;;;;;0.25;0.25;;;7.90;83.30;;;;;;5089883;28;20562;-62
2023/01/16 13:52:18;;;;;;;0.30;0.30;;;7.80;83.30;;;;;;5075993;28;20112;-62
2023/01/16 13:54:46;;;;;;;0.40;0.30;;;7.90;83.20;;;;;;5092956;28;20106;-62
2023/01/16 13:57:18;;;;;;;0.40;0.40;;;7.80;83.20;;;;;;5100899;28;20106;-62
2023/01/16 13:59:47;;;;;;;0.30;0.30;;;7.90;83.10;;;;;;5097390;28;20564;-63
2023/01/16 14:02:42;;;;;;;0.32;0.22;;;7.90;83.00;;;;;;5095834;28;20490;-64
2023/01/16 14:05:25;;;;;;;0.20;0.20;;;8.00;83.00;;;;;;5077048;28;20028;-62
2023/01/16 14:11:05;;;;;;;0.35;0.35;;;7.90;82.70;;;;;;5090005;28;20587;-63
2023/01/16 14:13:38;;;;;;;0.28;0.28;;;7.90;82.80;;;;;;5078311;28;20493;-62
2023/01/16 14:16:30;;;;;;;0.70;0.43;;;7.90;83.00;;;;;;5076071;28;20368;-63
2023/01/16 14:18:56;;;;;;;0.28;0.28;;;7.90;82.90;;;;;;5100512;28;20401;-62
2023/01/16 14:21:36;;;;;;;0.28;0.28;;;7.80;82.90;;;;;;5090071;28;20040;-62
2023/01/16 14:24:11;;;;;;;1.13;0.40;;;7.80;83.00;;;;;;5082163;28;20391;-62
2023/01/16 14:26:44;;;;;;;0.85;0.40;;;7.70;83.10;;;;;;5092599;28;20031;-63
2023/01/16 14:29:16;;;;;;;0.40;0.40;;;7.70;83.10;;;;;;5092379;28;20027;-62
2023/01/16 14:32:02;;;;;;;1.40;0.65;;;7.70;83.30;;;;;;5095751;28;20036;-62
2023/01/16 14:34:35;;;;;;;0.50;0.38;;;7.70;83.20;;;;;;5089247;28;20355;-62
2023/01/16 14:37:10;;;;;;;0.40;0.40;;;7.60;83.30;;;;;;5059285;28;20519;-64
2023/01/16 14:39:48;;;;;;;0.47;0.28;;;7.60;83.40;;;;;;5090339;28;20043;-64